createdAt,value
2022-09-24T00:01:06.878Z,1750.93
2022-09-24T00:03:36.198Z,1728.30
2022-09-24T00:06:04.136Z,1748.70
2022-09-24T00:08:32.096Z,1764.90
2022-09-24T00:11:02.152Z,1766.15
2022-09-24T00:13:29.229Z,1660.03
2022-09-24T00:15:56.458Z,1684.20
2022-09-24T00:18:23.611Z,1694.97
2022-09-24T00:20:50.719Z,1724.85
2022-09-24T00:23:17.792Z,1667.93
2022-09-24T00:26:04.502Z,1704.20
2022-09-24T00:28:32.027Z,1675.67
2022-09-24T00:30:59.880Z,1732.35
2022-09-24T00:33:33.231Z,1723.47
2022-09-24T00:36:02.586Z,1745.60
2022-09-24T00:38:30.296Z,1707.07
2022-09-24T00:40:57.575Z,1640.27
2022-09-24T00:43:34.389Z,1726.53
2022-09-24T00:46:13.769Z,1627.77
2022-09-24T00:48:41.293Z,1725.47
2022-09-24T00:51:08.962Z,1658.50
2022-09-24T00:53:36.245Z,1602.50
2022-09-24T00:56:04.078Z,1562.33
2022-09-24T00:58:31.623Z,1609.38
2022-09-24T01:01:05.763Z,1643.83
2022-09-24T01:03:34.318Z,1590.93
2022-09-24T01:06:01.835Z,1625.80
2022-09-24T01:08:28.920Z,1700.10
2022-09-24T01:11:28.622Z,1691.20
2022-09-24T01:13:55.693Z,1717.80
2022-09-24T01:16:45.986Z,1758.63
2022-09-24T01:19:16.112Z,1644.43
2022-09-24T01:21:46.139Z,1678.07
2022-09-24T01:24:15.902Z,1694.87
2022-09-24T01:26:58.486Z,1711.60
2022-09-24T01:29:44.161Z,1751.13
2022-09-24T01:32:18.747Z,1704.68
2022-09-24T01:34:58.426Z,1755.73
2022-09-24T01:37:27.041Z,1670.13
2022-09-24T01:39:56.182Z,1636.53
2022-09-24T01:42:24.936Z,1633.87
2022-09-24T01:44:52.170Z,1708.50
2022-09-24T01:47:21.813Z,1567.67
2022-09-24T01:49:53.407Z,1520.22
2022-09-24T01:52:22.079Z,1657.05
2022-09-24T01:54:52.194Z,1601.97
2022-09-24T01:57:22.169Z,1531.93
2022-09-24T01:59:55.217Z,1577.20
2022-09-24T02:02:34.496Z,1549.93
2022-09-24T02:05:13.998Z,1618.47
2022-09-24T02:07:45.798Z,1585.05
2022-09-24T02:10:16.535Z,1586.25
2022-09-24T02:12:45.137Z,1543.77
2022-09-24T02:15:17.354Z,1631.60
2022-09-24T02:17:46.719Z,1638.50
2022-09-24T02:20:17.090Z,1662.22
2022-09-24T02:22:44.867Z,1550.50
2022-09-24T02:25:14.594Z,1623.32
2022-09-24T02:27:42.170Z,1592.03
2022-09-24T02:30:10.879Z,1513.32
2022-09-24T02:32:40.332Z,1526.75
2022-09-24T02:35:09.060Z,1536.47
2022-09-24T02:37:37.903Z,1551.13
2022-09-24T02:40:05.845Z,1448.95
2022-09-24T02:42:33.199Z,1534.70
2022-09-24T02:45:00.582Z,1549.22
2022-09-24T02:47:28.682Z,1556.57
2022-09-24T02:49:56.176Z,1544.50
2022-09-24T02:52:23.836Z,1530.72
2022-09-24T02:54:51.275Z,1552.18
2022-09-24T02:57:19.051Z,1585.63
2022-09-24T02:59:46.589Z,1572.38
2022-09-24T03:02:15.195Z,1595.07
2022-09-24T03:04:42.636Z,1593.20
2022-09-24T03:07:10.215Z,1366.47
2022-09-24T03:09:37.330Z,1469.65
2022-09-24T03:12:05.087Z,1545.32
2022-09-24T03:14:32.230Z,1598.50
2022-09-24T03:16:59.362Z,1531.07
2022-09-24T03:19:26.484Z,1503.07
2022-09-24T03:21:53.637Z,1490.93
2022-09-24T03:24:20.727Z,1319.43
2022-09-24T03:26:47.804Z,1402.13
2022-09-24T03:29:14.863Z,1449.38
2022-09-24T03:31:41.990Z,1417.85
2022-09-24T03:34:09.185Z,1385.13
2022-09-24T03:36:36.379Z,1329.85
2022-09-24T03:39:03.656Z,1401.20
2022-09-24T03:41:30.849Z,1468.93
2022-09-24T03:43:57.918Z,1430.50
2022-09-24T03:46:30.193Z,1468.18
2022-09-24T03:48:59.321Z,1495.82
2022-09-24T03:51:26.528Z,1488.22
2022-09-24T03:53:53.648Z,1491.82
2022-09-24T03:56:20.727Z,1320.50
2022-09-24T03:58:48.031Z,1444.20
2022-09-24T04:01:21.695Z,1434.32
2022-09-24T04:03:49.990Z,1374.22
2022-09-24T04:06:20.750Z,1232.45
2022-09-24T04:08:51.061Z,1395.88
2022-09-24T04:11:18.143Z,1280.17
2022-09-24T04:13:45.312Z,1390.38
2022-09-24T04:16:12.459Z,1431.60
2022-09-24T04:18:39.675Z,1291.88
2022-09-24T04:21:06.976Z,1356.45
2022-09-24T04:23:34.211Z,1266.82
2022-09-24T04:26:02.277Z,1271.45
2022-09-24T04:28:30.107Z,1372.88
2022-09-24T04:30:57.277Z,1350.40
2022-09-24T04:33:24.403Z,1329.15
2022-09-24T04:35:51.462Z,1415.50
2022-09-24T04:38:20.170Z,1295.75
2022-09-24T04:40:47.559Z,1252.03
2022-09-24T04:43:14.945Z,1313.95
2022-09-24T04:45:44.084Z,1402.80
2022-09-24T04:48:11.384Z,1376.40
2022-09-24T04:50:44.797Z,1401.45
2022-09-24T04:53:13.247Z,1383.90
2022-09-24T04:55:41.552Z,1343.25
2022-09-24T04:58:09.392Z,1417.22
2022-09-24T05:00:36.497Z,1531.32
2022-09-24T05:03:03.860Z,1273.80
2022-09-24T05:05:32.276Z,1213.10
2022-09-24T05:07:59.668Z,1295.03
2022-09-24T05:10:27.306Z,1338.03
2022-09-24T05:12:54.490Z,1275.78
2022-09-24T05:15:22.027Z,1352.97
2022-09-24T05:17:49.167Z,1152.35
2022-09-24T05:20:16.877Z,1198.65
2022-09-24T05:22:45.076Z,1168.65
2022-09-24T05:25:12.500Z,1323.07
2022-09-24T05:27:44.618Z,1366.18
2022-09-24T05:30:12.293Z,1346.05
2022-09-24T05:32:39.456Z,1331.25
2022-09-24T05:35:08.227Z,1153.40
2022-09-24T05:37:35.785Z,1062.72
2022-09-24T05:40:23.674Z,1126.50
2022-09-24T05:42:51.559Z,1270.13
2022-09-24T05:45:18.984Z,1144.93
2022-09-24T05:47:46.792Z,1207.85
2022-09-24T05:50:14.540Z,1169.18
2022-09-24T05:52:42.342Z,1189.40
2022-09-24T05:55:10.238Z,1125.75
2022-09-24T05:57:37.564Z,1120.90
2022-09-24T06:00:05.541Z,1187.38
2022-09-24T06:02:32.677Z,1182.00
2022-09-24T06:04:59.812Z,1181.50
2022-09-24T06:07:26.874Z,1141.47
2022-09-24T06:09:55.372Z,1146.28
2022-09-24T06:12:23.516Z,1164.60
2022-09-24T06:14:50.588Z,1189.32
2022-09-24T06:17:17.816Z,1177.97
2022-09-24T06:19:44.879Z,1111.05
2022-09-24T06:22:11.984Z,1103.93
2022-09-24T06:24:39.634Z,1136.97
2022-09-24T06:27:06.776Z,955.85
2022-09-24T06:29:33.878Z,1193.85
2022-09-24T06:32:01.902Z,1198.13
2022-09-24T06:34:29.250Z,1044.72
2022-09-24T06:36:57.027Z,1133.60
2022-09-24T06:39:25.932Z,1134.00
2022-09-24T06:41:53.195Z,897.30
2022-09-24T06:44:20.261Z,1029.97
2022-09-24T06:46:48.066Z,882.42
2022-09-24T06:49:15.316Z,970.40
2022-09-24T06:51:42.592Z,879.00
2022-09-24T06:54:10.132Z,883.95
2022-09-24T06:56:37.327Z,967.58
2022-09-24T06:59:04.514Z,894.05
2022-09-24T07:01:31.820Z,1001.67
2022-09-24T07:03:59.038Z,1016.53
2022-09-24T07:06:26.238Z,798.92
2022-09-24T07:08:53.407Z,644.90
2022-09-24T07:11:20.525Z,545.97
2022-09-24T07:13:47.586Z,567.65
2022-09-24T07:16:14.781Z,581.20
2022-09-24T07:18:41.912Z,586.80
2022-09-24T07:21:09.042Z,559.92
2022-09-24T07:23:36.120Z,609.75
2022-09-24T07:26:03.252Z,646.83
2022-09-24T07:28:30.305Z,603.83
2022-09-24T07:30:58.602Z,668.83
2022-09-24T07:33:25.748Z,622.65
2022-09-24T07:35:52.859Z,573.83
2022-09-24T07:38:19.926Z,594.55
2022-09-24T07:40:47.112Z,440.20
2022-09-24T07:43:14.706Z,412.25
2022-09-24T07:45:42.581Z,379.67
2022-09-24T07:48:10.555Z,418.80
2022-09-24T07:50:41.494Z,349.52
2022-09-24T07:53:10.796Z,367.00
2022-09-24T07:55:40.440Z,357.17
2022-09-24T07:58:09.177Z,384.95
2022-09-24T08:00:36.317Z,177.32
2022-09-24T08:03:05.403Z,128.73
2022-09-24T08:05:33.122Z,111.22
2022-09-24T08:08:00.546Z,116.10
2022-09-24T08:10:28.638Z,159.68
2022-09-24T08:12:58.928Z,167.65
2022-09-24T08:15:26.047Z,114.50
2022-09-24T08:17:53.242Z,147.50
2022-09-24T08:20:23.340Z,166.80
2022-09-24T08:22:50.447Z,150.50
2022-09-24T08:25:17.571Z,153.27
2022-09-24T08:27:44.663Z,156.73
2022-09-24T08:30:12.098Z,106.85
2022-09-24T08:32:39.435Z,150.15
2022-09-24T08:35:08.257Z,132.30
2022-09-24T08:37:35.459Z,133.82
2022-09-24T08:40:03.878Z,149.35
2022-09-24T08:42:49.777Z,153.55
2022-09-24T08:45:36.460Z,124.95
2022-09-24T08:48:03.644Z,140.27
2022-09-24T08:50:35.751Z,116.20
2022-09-24T08:53:02.843Z,138.27
2022-09-24T08:55:41.270Z,135.68
2022-09-24T08:58:12.033Z,152.50
2022-09-24T09:01:02.235Z,208.07
2022-09-24T09:03:56.102Z,208.45
2022-09-24T09:06:42.061Z,177.32
2022-09-24T09:09:14.990Z,195.52
2022-09-24T09:11:44.371Z,178.18
2022-09-24T09:14:39.566Z,163.10
2022-09-24T09:17:24.967Z,179.85
2022-09-24T09:19:55.872Z,195.88
2022-09-24T09:22:25.738Z,230.93
2022-09-24T09:24:53.702Z,213.10
2022-09-24T09:27:21.766Z,195.95
2022-09-24T09:29:48.893Z,160.13
2022-09-24T09:32:28.767Z,157.00
2022-09-24T09:35:01.659Z,149.05
2022-09-24T09:37:46.008Z,196.88
2022-09-24T09:40:32.535Z,172.40
2022-09-24T09:43:02.820Z,182.90
2022-09-24T09:45:48.495Z,134.50
2022-09-24T09:48:16.718Z,130.35
2022-09-24T09:50:51.367Z,102.63
2022-09-24T09:53:22.180Z,90.00
2022-09-24T09:56:08.254Z,93.55
2022-09-24T09:58:36.832Z,101.53
2022-09-24T10:01:06.926Z,87.43
2022-09-24T10:03:48.991Z,78.25
2022-09-24T10:06:36.442Z,81.93
2022-09-24T10:09:08.524Z,471.27
2022-09-24T10:11:35.740Z,431.92
2022-09-24T10:14:04.122Z,363.65
2022-09-24T10:16:31.410Z,407.75
2022-09-24T10:18:58.588Z,379.17
2022-09-24T10:21:36.284Z,389.58
2022-09-24T10:24:04.585Z,403.58
2022-09-24T10:26:43.883Z,254.52
2022-09-24T10:29:49.734Z,308.05
2022-09-24T10:32:20.853Z,240.23
2022-09-24T10:35:01.355Z,300.48
2022-09-24T10:37:29.278Z,271.88
2022-09-24T10:40:24.341Z,292.20
2022-09-24T10:42:57.978Z,301.58
2022-09-24T10:45:29.846Z,327.50
2022-09-24T10:48:12.633Z,373.95
2022-09-24T10:51:00.043Z,349.90
2022-09-24T10:53:38.647Z,233.73
2022-09-24T10:56:12.792Z,265.88
2022-09-24T10:58:58.663Z,286.08
2022-09-24T11:01:37.096Z,320.05
2022-09-24T11:04:22.888Z,265.77
2022-09-24T11:07:08.852Z,249.82
2022-09-24T11:09:50.884Z,270.40
2022-09-24T11:12:25.875Z,369.02
2022-09-24T11:14:59.741Z,355.80
2022-09-24T11:17:26.986Z,326.60
2022-09-24T11:19:57.161Z,294.70
2022-09-24T11:22:44.638Z,301.45
2022-09-24T11:25:24.350Z,331.33
2022-09-24T11:27:51.459Z,354.65
2022-09-24T11:30:24.831Z,413.98
2022-09-24T11:32:52.056Z,372.80
2022-09-24T11:35:24.977Z,385.10
2022-09-24T11:37:52.074Z,315.35
2022-09-24T11:40:37.607Z,367.75
2022-09-24T11:43:07.875Z,332.85
2022-09-24T11:45:44.771Z,354.47
2022-09-24T11:48:27.101Z,314.17
2022-09-24T11:50:56.988Z,305.42
2022-09-24T11:53:30.537Z,294.00
2022-09-24T11:56:07.238Z,304.80
2022-09-24T11:58:42.525Z,300.70
2022-09-24T12:01:18.570Z,328.02
2022-09-24T12:03:54.157Z,241.43
2022-09-24T12:06:25.204Z,275.73
2022-09-24T12:08:57.117Z,303.30
2022-09-24T12:11:30.709Z,322.17
2022-09-24T12:14:02.536Z,311.85
2022-09-24T12:16:33.432Z,322.33
2022-09-24T12:19:04.502Z,272.77
2022-09-24T12:21:34.039Z,275.65
2022-09-24T12:24:06.480Z,313.27
2022-09-24T12:26:36.984Z,393.42
2022-09-24T12:29:22.773Z,343.65
2022-09-24T12:32:20.209Z,311.50
2022-09-24T12:35:07.335Z,356.15
2022-09-24T12:37:38.515Z,281.48
2022-09-24T12:42:35.429Z,344.38
2022-09-24T12:45:03.530Z,319.40
2022-09-24T12:47:33.273Z,374.00
2022-09-24T12:50:05.504Z,364.67
2022-09-24T12:52:35.778Z,380.67
2022-09-24T12:55:03.876Z,383.03
2022-09-24T12:57:33.538Z,415.50
2022-09-24T13:00:01.863Z,335.17
2022-09-24T13:02:44.021Z,378.50
2022-09-24T13:05:19.570Z,410.10
2022-09-24T13:07:56.384Z,396.70
2022-09-24T13:10:25.401Z,435.75
2022-09-24T13:12:53.071Z,438.42
2022-09-24T13:15:35.762Z,433.25
2022-09-24T13:18:06.779Z,475.77
2022-09-24T13:20:34.333Z,493.77
2022-09-24T13:23:12.956Z,528.60
2022-09-24T13:25:40.137Z,516.10
2022-09-24T13:28:21.009Z,516.42
2022-09-24T13:30:51.604Z,520.58
2022-09-24T13:33:36.214Z,469.23
2022-09-24T13:36:16.985Z,476.60
2022-09-24T13:38:44.051Z,521.60
2022-09-24T13:41:22.903Z,512.47
2022-09-24T13:43:59.097Z,553.63
2022-09-24T13:46:27.325Z,484.10
2022-09-24T13:48:57.098Z,574.50
2022-09-24T13:51:27.606Z,578.17
2022-09-24T13:54:04.432Z,474.75
2022-09-24T13:56:32.370Z,517.75
2022-09-24T13:59:06.943Z,551.35
2022-09-24T14:01:40.234Z,463.05
2022-09-24T14:04:33.856Z,496.80
2022-09-24T14:07:03.253Z,536.45
2022-09-24T14:09:31.562Z,457.70
2022-09-24T14:12:00.223Z,466.52
2022-09-24T14:14:29.543Z,510.67
2022-09-24T14:17:09.368Z,464.50
2022-09-24T14:19:36.594Z,469.67
2022-09-24T14:22:05.929Z,574.28
2022-09-24T14:24:35.005Z,564.22
2022-09-24T14:27:09.928Z,576.72
2022-09-24T14:29:45.360Z,547.95
2022-09-24T14:32:35.044Z,445.88
2022-09-24T14:35:05.134Z,520.15
2022-09-24T14:37:33.285Z,544.65
2022-09-24T14:40:09.046Z,510.10
2022-09-24T14:42:41.739Z,532.40
2022-09-24T14:45:10.899Z,542.50
2022-09-24T14:47:38.319Z,579.30
2022-09-24T14:50:25.817Z,427.38
2022-09-24T14:53:00.713Z,498.58
2022-09-24T14:55:38.547Z,546.92
2022-09-24T14:58:05.946Z,598.38
2022-09-24T15:00:38.010Z,628.80
2022-09-24T15:03:13.721Z,565.00
2022-09-24T15:05:41.109Z,654.22
2022-09-24T15:08:11.651Z,607.42
2022-09-24T15:10:39.935Z,643.65
2022-09-24T15:13:14.577Z,602.70
2022-09-24T15:15:41.872Z,673.00
2022-09-24T15:18:10.997Z,649.40
2022-09-24T15:20:38.349Z,629.15
2022-09-24T15:23:05.422Z,644.40
2022-09-24T15:25:32.545Z,683.40
2022-09-24T15:27:59.730Z,691.30
2022-09-24T15:30:26.942Z,688.08
2022-09-24T15:32:54.152Z,702.13
2022-09-24T15:35:21.430Z,602.38
2022-09-24T15:37:49.471Z,649.47
2022-09-24T15:40:20.757Z,679.22
2022-09-24T15:42:47.970Z,693.95
2022-09-24T15:45:19.323Z,686.33
2022-09-24T15:50:13.831Z,621.47
2022-09-24T15:53:09.061Z,620.60
2022-09-24T15:55:37.149Z,585.15
2022-09-24T15:58:10.231Z,658.67
2022-09-24T16:00:37.768Z,625.35
2022-09-24T16:03:05.044Z,634.25
2022-09-24T16:05:32.435Z,663.13
2022-09-24T16:07:59.579Z,617.00
2022-09-24T16:10:26.734Z,693.33
2022-09-24T16:12:53.827Z,579.85
2022-09-24T16:15:21.670Z,693.80
2022-09-24T16:17:50.064Z,722.05
2022-09-24T16:20:17.318Z,772.15
2022-09-24T16:22:44.492Z,805.30
2022-09-24T16:25:11.704Z,604.55
2022-09-24T16:27:41.315Z,709.65
2022-09-24T16:30:09.029Z,652.00
2022-09-24T16:32:36.159Z,794.75
2022-09-24T16:35:03.357Z,689.90
2022-09-24T16:37:30.809Z,803.15
2022-09-24T16:39:58.037Z,818.75
2022-09-24T16:42:26.450Z,808.03
2022-09-24T16:44:53.718Z,838.20
2022-09-24T16:47:21.135Z,866.55
2022-09-24T16:49:48.542Z,875.88
2022-09-24T16:52:15.613Z,843.08
2022-09-24T16:54:42.775Z,882.63
2022-09-24T16:57:09.974Z,858.95
2022-09-24T16:59:37.217Z,664.05
2022-09-24T17:02:04.567Z,678.08
2022-09-24T17:04:31.756Z,838.70
2022-09-24T17:06:59.132Z,805.03
2022-09-24T17:09:44.867Z,770.60
2022-09-24T17:12:12.044Z,777.70
2022-09-24T17:14:39.395Z,820.95
2022-09-24T17:17:06.897Z,857.65
2022-09-24T17:19:34.020Z,806.40
2022-09-24T17:22:01.127Z,799.38
2022-09-24T17:24:28.262Z,810.30
2022-09-24T17:26:56.546Z,829.33
2022-09-24T17:29:30.474Z,900.55
2022-09-24T17:31:58.575Z,896.10
2022-09-24T17:34:25.755Z,868.67
2022-09-24T17:36:52.942Z,911.50
2022-09-24T17:39:20.122Z,943.33
2022-09-24T17:41:47.325Z,1000.53
2022-09-24T17:44:17.163Z,847.90
2022-09-24T17:46:44.690Z,902.72
2022-09-24T17:49:12.444Z,913.50
2022-09-24T17:51:40.117Z,958.78
2022-09-24T17:54:14.845Z,991.00
2022-09-24T17:56:42.814Z,989.55
2022-09-24T17:59:10.925Z,1025.35
2022-09-24T18:01:38.989Z,764.13
2022-09-24T18:04:07.322Z,870.95
2022-09-24T18:06:37.380Z,898.35
2022-09-24T18:09:04.931Z,927.70
2022-09-24T18:11:38.241Z,1052.60
2022-09-24T18:14:05.802Z,960.90
2022-09-24T18:16:33.531Z,922.47
2022-09-24T18:19:01.617Z,1010.33
2022-09-24T18:21:29.442Z,915.55
2022-09-24T18:23:57.426Z,949.28
2022-09-24T18:26:25.963Z,998.45
2022-09-24T18:28:54.431Z,878.88
2022-09-24T18:31:23.582Z,1018.08
2022-09-24T18:33:51.685Z,911.72
2022-09-24T18:36:20.371Z,964.92
2022-09-24T18:38:47.970Z,1008.30
2022-09-24T18:41:25.169Z,1028.63
2022-09-24T18:43:53.038Z,922.72
2022-09-24T18:46:20.931Z,937.00
2022-09-24T18:48:49.799Z,930.42
2022-09-24T18:51:18.734Z,949.72
2022-09-24T18:53:46.414Z,1013.13
2022-09-24T18:56:13.798Z,943.22
2022-09-24T18:58:41.683Z,922.88
2022-09-24T19:01:09.670Z,998.30
2022-09-24T19:03:39.664Z,1102.97
2022-09-24T19:06:08.020Z,1113.13
2022-09-24T19:08:35.693Z,1065.40
2022-09-24T19:11:13.915Z,1058.93
2022-09-24T19:13:42.451Z,1099.82
2022-09-24T19:16:14.109Z,1101.75
2022-09-24T19:18:41.962Z,1069.00
2022-09-24T19:21:10.314Z,1087.88
2022-09-24T19:23:38.496Z,998.15
2022-09-24T19:26:07.009Z,1050.38
2022-09-24T19:28:35.238Z,973.85
2022-09-24T19:31:03.015Z,999.45
2022-09-24T19:33:30.377Z,1043.38
2022-09-24T19:35:59.114Z,1007.83
2022-09-24T19:38:28.467Z,1073.07
2022-09-24T19:41:26.273Z,1030.65
2022-09-24T19:43:55.152Z,965.15
2022-09-24T19:46:24.324Z,1043.40
2022-09-24T19:48:52.205Z,975.55
2022-09-24T19:51:20.848Z,1022.72
2022-09-24T19:53:48.951Z,927.42
2022-09-24T19:56:16.515Z,1040.95
2022-09-24T19:58:47.185Z,1002.38
2022-09-24T20:01:17.320Z,1074.23
2022-09-24T20:03:45.095Z,1147.40
2022-09-24T20:06:25.949Z,1154.85
2022-09-24T20:08:53.539Z,1127.25
2022-09-24T20:11:22.243Z,1033.70
2022-09-24T20:13:50.549Z,1089.35
2022-09-24T20:16:22.249Z,1086.03
2022-09-24T20:18:50.336Z,967.95
2022-09-24T20:21:18.413Z,1122.95
2022-09-24T20:23:46.535Z,1016.28
2022-09-24T20:26:32.471Z,910.80
2022-09-24T20:29:00.186Z,911.70
2022-09-24T20:31:27.610Z,953.05
2022-09-24T20:33:54.806Z,972.72
2022-09-24T20:36:24.831Z,948.22
2022-09-24T20:38:52.895Z,943.72
2022-09-24T20:41:22.230Z,991.83
2022-09-24T20:43:49.667Z,1173.55
2022-09-24T20:46:18.411Z,1078.47
2022-09-24T20:48:45.606Z,1108.05
2022-09-24T20:51:14.379Z,1108.80
2022-09-24T20:53:41.849Z,1156.07
2022-09-24T20:56:09.303Z,1112.38
2022-09-24T20:58:37.201Z,1171.18
2022-09-24T21:01:04.772Z,972.28
2022-09-24T21:03:43.785Z,853.28
2022-09-24T21:06:12.482Z,857.92
2022-09-24T21:08:40.684Z,910.17
2022-09-24T21:11:09.219Z,939.03
2022-09-24T21:13:40.303Z,1014.45
2022-09-24T21:16:08.186Z,998.83
2022-09-24T21:18:40.043Z,1056.72
2022-09-24T21:21:08.964Z,1104.93
2022-09-24T21:23:38.033Z,1146.20
2022-09-24T21:26:24.359Z,1064.07
2022-09-24T21:28:52.809Z,1131.30
2022-09-24T21:31:21.615Z,904.13
2022-09-24T21:33:49.651Z,1006.97
2022-09-24T21:36:19.231Z,1068.30
2022-09-24T21:38:54.227Z,1144.43
2022-09-24T21:41:22.630Z,1025.57
2022-09-24T21:43:49.812Z,1090.82
2022-09-24T21:46:17.046Z,963.55
2022-09-24T21:48:44.179Z,1098.30
2022-09-24T21:51:13.809Z,1068.80
2022-09-24T21:53:41.202Z,913.85
2022-09-24T21:56:08.404Z,1048.38
2022-09-24T21:58:35.565Z,1070.57
2022-09-24T22:01:05.009Z,943.35
2022-09-24T22:03:32.700Z,1031.03
2022-09-24T22:06:03.196Z,1110.90
2022-09-24T22:08:31.769Z,866.47
2022-09-24T22:11:03.723Z,1116.18
2022-09-24T22:13:31.527Z,1161.82
2022-09-24T22:15:59.850Z,1110.80
2022-09-24T22:18:27.974Z,1141.07
2022-09-24T22:20:55.924Z,1182.30
2022-09-24T22:23:23.129Z,1225.72
2022-09-24T22:25:57.541Z,1200.68
2022-09-24T22:28:26.200Z,1260.18
2022-09-24T22:30:54.088Z,1097.75
2022-09-24T22:33:40.117Z,1214.07
2022-09-24T22:36:07.363Z,1263.20
2022-09-24T22:38:34.611Z,1239.72
2022-09-24T22:41:02.465Z,1184.63
2022-09-24T22:43:29.930Z,1207.35
2022-09-24T22:45:57.960Z,1263.60
2022-09-24T22:48:25.175Z,1270.35
2022-09-24T22:50:52.333Z,982.53
2022-09-24T22:53:19.624Z,1001.80
2022-09-24T22:55:50.496Z,1080.00
2022-09-24T22:58:19.728Z,1059.13
2022-09-24T23:00:46.938Z,1096.45
2022-09-24T23:03:14.020Z,1048.15
2022-09-24T23:05:41.080Z,1049.22
2022-09-24T23:08:08.168Z,1109.22
2022-09-24T23:10:35.268Z,982.53
2022-09-24T23:13:02.350Z,966.55
2022-09-24T23:15:29.389Z,1060.32
2022-09-24T23:17:56.490Z,1076.55
2022-09-24T23:20:23.626Z,1045.38
2022-09-24T23:22:50.722Z,1017.40
2022-09-24T23:25:17.928Z,1042.32
2022-09-24T23:27:45.059Z,1026.80
2022-09-24T23:30:12.300Z,1031.60
2022-09-24T23:32:39.915Z,1031.63
2022-09-24T23:35:07.145Z,1052.78
2022-09-24T23:37:34.413Z,1125.32
2022-09-24T23:40:01.636Z,1125.38
2022-09-24T23:42:28.917Z,1162.18
2022-09-24T23:44:56.021Z,1168.20
2022-09-24T23:47:23.149Z,1178.47
2022-09-24T23:49:50.271Z,1192.15
2022-09-24T23:52:17.376Z,1194.35
2022-09-24T23:54:44.540Z,1256.72
2022-09-24T23:57:11.679Z,1289.25
2022-09-24T23:59:39.075Z,1256.53
